South Londonderry, Pennsylvania
Current Conditions -  °F | °C
As of 9:56 PM on Friday 24 Oct 2014 (Local Time) from KMDT Reporting Station
Broken Clouds Broken Clouds  
Wind Chill: 56°   Ceiling: 22000
Heat Index: 56°   Visibility: 10mi
Dew Point: 40°   Wind: 13mph
Humidity: 55%   Direction: 310°NW
Pressure: 29.92"   Gusts: NA
Location:  40.2634°N, 76.626°W
Report Text: KMDT 250156Z 31011KT 10SM BKN220 13/04 A2992 RMK AO2 SLP132 T01330044
Loading
Personal Weather Stations






























Interactive Weather Map
Tropical Storm Tracking
New forecast layout! Learn more

10-Day Weather Forecast

Advertisements
Track Severe Weather on mobile